createdAt,value
2018-05-26T00:02:54.766Z,20.81
2018-05-26T00:05:56.833Z,20.79
2018-05-26T00:09:00.051Z,20.76
2018-05-26T00:12:03.018Z,20.78
2018-05-26T00:15:05.096Z,20.77
2018-05-26T00:18:07.172Z,20.79
2018-05-26T00:21:09.220Z,20.77
2018-05-26T00:24:12.322Z,20.72
2018-05-26T00:27:14.379Z,20.68
2018-05-26T00:30:16.456Z,20.53
2018-05-26T00:33:18.538Z,20.48
2018-05-26T00:36:20.583Z,20.48
2018-05-26T00:39:22.663Z,20.49
2018-05-26T00:42:24.732Z,20.49
2018-05-26T00:45:26.811Z,20.47
2018-05-26T00:48:30.003Z,20.46
2018-05-26T00:51:32.063Z,20.46
2018-05-26T00:54:34.123Z,20.45
2018-05-26T00:57:36.117Z,20.45
2018-05-26T01:00:38.174Z,20.45
2018-05-26T01:03:42.188Z,20.44
2018-05-26T01:06:44.566Z,20.36
2018-05-26T01:09:46.534Z,20.33
2018-05-26T01:12:48.575Z,20.30
2018-05-26T01:15:50.691Z,20.25
2018-05-26T01:18:52.746Z,20.24
2018-05-26T01:21:54.804Z,20.19
2018-05-26T01:24:56.881Z,20.16
2018-05-26T01:27:58.971Z,20.16
2018-05-26T01:31:02.031Z,20.18
2018-05-26T01:34:04.105Z,20.17
2018-05-26T01:37:06.203Z,20.15
2018-05-26T01:40:08.316Z,20.11
2018-05-26T01:43:10.332Z,20.09
2018-05-26T01:46:12.469Z,20.11
2018-05-26T01:49:14.566Z,20.09
2018-05-26T01:52:16.622Z,20.03
2018-05-26T01:55:18.806Z,19.99
2018-05-26T01:58:20.836Z,19.97
2018-05-26T02:01:22.919Z,19.99
2018-05-26T02:04:25.027Z,19.95
2018-05-26T02:07:27.177Z,19.92
2018-05-26T02:10:29.231Z,19.94
2018-05-26T02:13:31.300Z,19.89
2018-05-26T02:16:33.396Z,19.84
2018-05-26T02:19:35.459Z,19.88
2018-05-26T02:22:37.629Z,19.82
2018-05-26T02:25:39.679Z,19.85
2018-05-26T02:28:42.869Z,19.77
2018-05-26T02:31:44.934Z,19.80
2018-05-26T02:34:47.025Z,19.73
2018-05-26T02:37:49.080Z,19.65
2018-05-26T02:40:51.184Z,19.62
2018-05-26T02:43:53.233Z,19.53
2018-05-26T02:46:55.302Z,19.55
2018-05-26T02:49:57.381Z,19.53
2018-05-26T02:52:59.440Z,19.51
2018-05-26T02:56:01.514Z,19.45
2018-05-26T02:59:03.563Z,19.38
2018-05-26T03:02:05.680Z,19.34
2018-05-26T03:05:13.459Z,19.31
2018-05-26T03:08:21.378Z,19.29
2018-05-26T03:11:29.068Z,19.14
2018-05-26T03:14:36.958Z,19.04
2018-05-26T03:17:39.099Z,19.05
2018-05-26T03:20:41.184Z,19.08
2018-05-26T03:23:43.268Z,19.11
2018-05-26T03:26:45.341Z,19.11
2018-05-26T03:29:47.401Z,19.17
2018-05-26T03:32:49.455Z,19.23
2018-05-26T03:35:51.543Z,19.26
2018-05-26T03:38:53.605Z,19.30
2018-05-26T03:41:55.662Z,19.37
2018-05-26T03:44:57.728Z,19.36
2018-05-26T03:47:59.841Z,19.33
2018-05-26T03:51:03.199Z,19.37
2018-05-26T03:54:07.315Z,19.39
2018-05-26T03:59:22.976Z,19.39
2018-05-26T04:02:24.997Z,19.43
2018-05-26T04:05:27.189Z,19.43
2018-05-26T04:08:29.220Z,19.42
2018-05-26T04:11:32.232Z,19.41
2018-05-26T04:14:34.424Z,19.43
2018-05-26T04:17:36.481Z,19.43
2018-05-26T04:20:38.600Z,19.45
2018-05-26T04:23:40.733Z,19.45
2018-05-26T04:26:42.805Z,19.47
2018-05-26T04:29:44.923Z,19.44
2018-05-26T04:32:47.033Z,19.38
2018-05-26T04:35:49.093Z,19.38
2018-05-26T04:38:51.190Z,19.41
2018-05-26T04:41:53.384Z,19.41
2018-05-26T04:44:57.673Z,19.36
2018-05-26T04:47:59.738Z,19.31
2018-05-26T04:51:02.951Z,19.38
2018-05-26T04:54:04.915Z,19.41
2018-05-26T04:57:07.088Z,19.49
2018-05-26T05:00:09.412Z,19.57
2018-05-26T05:03:11.579Z,19.62
2018-05-26T05:06:13.698Z,19.70
2018-05-26T05:09:15.639Z,19.76
2018-05-26T05:12:17.686Z,19.83
2018-05-26T05:15:19.759Z,19.86
2018-05-26T05:18:21.828Z,19.93
2018-05-26T05:21:23.876Z,19.91
2018-05-26T05:24:26.228Z,20.01
2018-05-26T05:27:28.339Z,20.10
2018-05-26T05:30:30.491Z,20.15
2018-05-26T05:33:34.384Z,20.21
2018-05-26T05:36:36.483Z,20.26
2018-05-26T05:39:38.786Z,20.17
2018-05-26T05:42:41.053Z,20.24
2018-05-26T05:45:44.152Z,20.33
2018-05-26T05:48:46.236Z,20.41
2018-05-26T05:51:48.287Z,20.34
2018-05-26T05:54:50.415Z,20.38
2018-05-26T05:57:52.594Z,20.38
2018-05-26T06:00:55.491Z,20.43
2018-05-26T06:03:57.624Z,20.52
2018-05-26T06:06:59.680Z,20.61
2018-05-26T06:10:01.937Z,20.64
2018-05-26T06:13:04.035Z,20.62
2018-05-26T06:16:06.054Z,20.68
2018-05-26T06:19:08.292Z,20.67
2018-05-26T06:22:10.379Z,20.66
2018-05-26T06:25:12.480Z,20.59
2018-05-26T06:28:14.700Z,20.52
2018-05-26T06:31:16.812Z,20.54
2018-05-26T06:34:18.854Z,20.51
2018-05-26T06:37:21.012Z,20.62
2018-05-26T06:40:24.227Z,20.71
2018-05-26T06:43:26.308Z,20.81
2018-05-26T06:46:28.708Z,21.02
2018-05-26T06:49:30.878Z,21.17
2018-05-26T06:52:32.891Z,21.25
2018-05-26T06:55:34.985Z,21.33
2018-05-26T06:58:37.114Z,21.43
2018-05-26T07:01:39.159Z,21.54
2018-05-26T07:04:41.698Z,21.61
2018-05-26T07:07:43.779Z,21.79
2018-05-26T07:10:45.744Z,21.80
2018-05-26T07:13:47.824Z,21.87
2018-05-26T07:16:49.871Z,21.91
2018-05-26T07:19:51.916Z,22.04
2018-05-26T07:22:56.138Z,22.12
2018-05-26T07:25:58.271Z,22.18
2018-05-26T07:29:02.672Z,22.36
2018-05-26T07:32:06.916Z,22.52
2018-05-26T07:35:08.955Z,22.64
2018-05-26T07:38:11.028Z,22.85
2018-05-26T07:41:13.190Z,22.95
2018-05-26T07:44:15.247Z,22.80
2018-05-26T07:47:17.222Z,22.76
2018-05-26T07:50:19.318Z,22.80
2018-05-26T07:53:21.429Z,22.83
2018-05-26T07:56:23.573Z,22.83
2018-05-26T07:59:25.817Z,22.98
2018-05-26T08:02:29.376Z,23.21
2018-05-26T08:05:31.546Z,23.38
2018-05-26T08:08:33.744Z,23.29
2018-05-26T08:11:35.891Z,23.37
2018-05-26T08:14:37.989Z,23.55
2018-05-26T08:17:40.036Z,23.64
2018-05-26T08:20:42.067Z,23.78
2018-05-26T08:23:44.024Z,23.86
2018-05-26T08:26:46.304Z,24.05
2018-05-26T08:29:48.426Z,24.04
2018-05-26T08:32:50.512Z,24.20
2018-05-26T08:35:52.584Z,24.36
2018-05-26T08:38:55.743Z,24.50
2018-05-26T08:41:57.889Z,24.56
2018-05-26T08:45:00.010Z,24.49
2018-05-26T08:48:02.104Z,24.60
2018-05-26T08:51:04.146Z,24.78
2018-05-26T08:54:06.395Z,24.88
2018-05-26T08:57:08.479Z,24.93
2018-05-26T09:00:10.851Z,25.15
2018-05-26T09:03:13.459Z,25.27
2018-05-26T09:06:15.757Z,25.40
2018-05-26T09:09:17.883Z,25.56
2018-05-26T09:12:20.961Z,25.39
2018-05-26T09:15:23.855Z,25.29
2018-05-26T09:18:26.020Z,25.22
2018-05-26T09:21:28.223Z,25.26
2018-05-26T09:24:30.299Z,25.30
2018-05-26T09:27:32.379Z,25.40
2018-05-26T09:30:34.535Z,25.49
2018-05-26T09:33:36.579Z,25.61
2018-05-26T09:36:38.771Z,25.85
2018-05-26T09:39:41.030Z,25.93
2018-05-26T09:42:43.119Z,25.96
2018-05-26T09:45:45.200Z,26.18
2018-05-26T09:48:52.787Z,26.23
2018-05-26T09:51:55.492Z,26.27
2018-05-26T09:54:57.656Z,26.14
2018-05-26T09:57:59.809Z,26.35
2018-05-26T10:01:06.151Z,26.49
2018-05-26T10:04:08.292Z,26.49
2018-05-26T10:07:10.415Z,26.38
2018-05-26T10:10:12.556Z,26.45
2018-05-26T10:13:14.681Z,26.47
2018-05-26T10:16:16.808Z,26.60
2018-05-26T10:19:18.941Z,26.76
2018-05-26T10:22:21.049Z,26.87
2018-05-26T10:25:23.175Z,26.91
2018-05-26T10:28:25.196Z,26.85
2018-05-26T10:31:27.259Z,26.88
2018-05-26T10:34:29.348Z,27.04
2018-05-26T10:37:31.301Z,27.09
2018-05-26T10:40:33.496Z,27.18
2018-05-26T10:43:35.647Z,26.95
2018-05-26T10:46:37.779Z,26.98
2018-05-26T10:49:40.097Z,26.93
2018-05-26T10:52:42.161Z,26.93
2018-05-26T10:55:44.350Z,27.02
2018-05-26T10:58:46.476Z,27.06
2018-05-26T11:01:48.536Z,26.96
2018-05-26T11:04:51.643Z,27.13
2018-05-26T11:07:53.575Z,27.19
2018-05-26T11:10:55.692Z,27.42
2018-05-26T11:13:58.046Z,27.62
2018-05-26T11:17:00.167Z,27.77
2018-05-26T11:20:02.338Z,27.89
2018-05-26T11:23:05.373Z,28.04
2018-05-26T11:26:07.409Z,28.23
2018-05-26T11:29:09.287Z,28.20
2018-05-26T11:32:11.412Z,28.39
2018-05-26T11:35:13.444Z,28.45
2018-05-26T11:38:15.519Z,28.42
2018-05-26T11:41:17.579Z,28.33
2018-05-26T11:44:19.639Z,28.36
2018-05-26T11:47:22.652Z,28.52
2018-05-26T11:50:24.720Z,28.61
2018-05-26T11:53:26.835Z,28.56
2018-05-26T11:56:29.147Z,28.62
2018-05-26T11:59:31.239Z,28.57
2018-05-26T12:02:33.276Z,28.39
2018-05-26T12:05:35.387Z,28.46
2018-05-26T12:08:37.527Z,28.50
2018-05-26T12:11:39.600Z,28.57
2018-05-26T12:14:41.655Z,28.29
2018-05-26T12:17:44.771Z,28.05
2018-05-26T12:20:46.974Z,28.06
2018-05-26T12:23:50.199Z,28.24
2018-05-26T12:26:52.367Z,28.52
2018-05-26T12:29:54.419Z,28.64
2018-05-26T12:33:00.028Z,28.61
2018-05-26T12:36:02.112Z,28.76
2018-05-26T12:39:05.412Z,28.94
2018-05-26T12:42:07.449Z,29.08
2018-05-26T12:45:09.548Z,29.35
2018-05-26T12:48:11.817Z,29.40
2018-05-26T12:51:15.116Z,29.10
2018-05-26T12:54:17.160Z,29.03
2018-05-26T12:57:19.236Z,28.98
2018-05-26T13:00:21.328Z,29.04
2018-05-26T13:03:23.536Z,29.07
2018-05-26T13:06:25.642Z,29.22
2018-05-26T13:09:27.776Z,29.31
2018-05-26T13:12:29.913Z,29.69
2018-05-26T13:15:32.131Z,29.63
2018-05-26T13:18:34.152Z,29.36
2018-05-26T13:21:36.415Z,29.46
2018-05-26T13:24:38.489Z,29.70
2018-05-26T13:27:41.484Z,29.86
2018-05-26T13:30:43.786Z,29.94
2018-05-26T13:33:45.732Z,29.59
2018-05-26T13:36:48.104Z,29.81
2018-05-26T13:39:50.148Z,29.86
2018-05-26T13:42:52.130Z,29.99
2018-05-26T13:45:54.201Z,30.08
2018-05-26T13:48:56.266Z,30.22
2018-05-26T13:51:59.088Z,30.17
2018-05-26T13:55:01.031Z,30.22
2018-05-26T13:58:03.111Z,30.43
2018-05-26T14:01:05.168Z,30.39
2018-05-26T14:04:07.333Z,30.47
2018-05-26T14:07:09.444Z,30.46
2018-05-26T14:10:11.467Z,30.32
2018-05-26T14:13:17.115Z,30.21
2018-05-26T14:16:19.138Z,30.21
2018-05-26T14:19:21.136Z,30.29
2018-05-26T14:22:23.220Z,30.55
2018-05-26T14:25:25.200Z,30.58
2018-05-26T14:28:29.311Z,30.77
2018-05-26T14:31:31.782Z,30.67
2018-05-26T14:34:34.261Z,30.62
2018-05-26T14:37:36.823Z,30.73
2018-05-26T14:40:39.332Z,30.87
2018-05-26T14:43:42.168Z,30.87
2018-05-26T14:46:44.433Z,30.88
2018-05-26T14:49:46.996Z,30.55
2018-05-26T14:52:49.388Z,30.72
2018-05-26T14:55:51.475Z,30.66
2018-05-26T14:58:53.984Z,30.72
2018-05-26T15:01:56.497Z,30.69
2018-05-26T15:04:59.972Z,30.76
2018-05-26T15:08:02.439Z,30.70
2018-05-26T15:11:06.020Z,30.46
2018-05-26T15:14:08.535Z,30.59
2018-05-26T15:17:11.090Z,30.60
2018-05-26T15:20:13.612Z,30.70
2018-05-26T15:23:16.156Z,30.74
2018-05-26T15:26:18.527Z,30.44
2018-05-26T15:29:21.124Z,29.93
2018-05-26T15:32:23.606Z,30.12
2018-05-26T15:35:25.691Z,30.28
2018-05-26T15:38:29.075Z,30.30
2018-05-26T15:41:31.247Z,30.38
2018-05-26T15:44:33.652Z,30.60
2018-05-26T15:47:36.290Z,30.68
2018-05-26T15:50:38.823Z,30.68
2018-05-26T15:53:41.292Z,30.61
2018-05-26T15:56:43.356Z,30.51
2018-05-26T15:59:45.859Z,30.50
2018-05-26T16:02:48.364Z,30.53
2018-05-26T16:05:51.788Z,30.59
2018-05-26T16:08:54.375Z,30.59
2018-05-26T16:11:59.351Z,30.50
2018-05-26T16:15:01.825Z,30.46
2018-05-26T16:18:04.280Z,30.52
2018-05-26T16:21:06.719Z,30.53
2018-05-26T16:24:08.820Z,30.17
2018-05-26T16:27:11.213Z,30.15
2018-05-26T16:30:13.342Z,30.09
2018-05-26T16:33:15.473Z,30.09
2018-05-26T16:36:17.698Z,29.94
2018-05-26T16:39:19.769Z,29.83
2018-05-26T16:42:22.546Z,29.85
2018-05-26T16:45:25.724Z,29.78
2018-05-26T16:48:27.832Z,29.85
2018-05-26T16:51:30.118Z,29.79
2018-05-26T16:54:34.500Z,29.72
2018-05-26T16:57:37.680Z,29.79
2018-05-26T17:00:39.788Z,29.80
2018-05-26T17:03:42.006Z,29.78
2018-05-26T17:06:45.156Z,29.71
2018-05-26T17:09:47.116Z,29.71
2018-05-26T17:12:49.176Z,29.67
2018-05-26T17:15:51.265Z,29.61
2018-05-26T17:18:53.346Z,29.53
2018-05-26T17:21:55.301Z,29.49
2018-05-26T17:24:57.367Z,29.51
2018-05-26T17:27:59.485Z,29.42
2018-05-26T17:31:01.660Z,29.35
2018-05-26T17:34:03.908Z,29.28
2018-05-26T17:37:07.129Z,29.24
2018-05-26T17:40:09.199Z,29.18
2018-05-26T17:43:11.297Z,29.06
2018-05-26T17:46:13.450Z,29.02
2018-05-26T17:49:15.769Z,29.01
2018-05-26T17:52:17.830Z,28.96
2018-05-26T17:55:19.911Z,28.89
2018-05-26T17:58:22.186Z,28.84
2018-05-26T18:01:24.276Z,28.78
2018-05-26T18:04:26.307Z,28.67
2018-05-26T18:07:28.476Z,28.70
2018-05-26T18:10:30.473Z,28.68
2018-05-26T18:13:32.467Z,28.63
2018-05-26T18:16:34.623Z,28.55
2018-05-26T18:19:37.820Z,28.38
2018-05-26T18:22:39.871Z,28.31
2018-05-26T18:25:41.975Z,28.22
2018-05-26T18:28:44.080Z,28.18
2018-05-26T18:31:46.205Z,28.09
2018-05-26T18:34:49.341Z,28.02
2018-05-26T18:37:51.398Z,27.98
2018-05-26T18:40:53.459Z,27.96
2018-05-26T18:43:55.624Z,27.94
2018-05-26T18:46:57.722Z,27.85
2018-05-26T18:49:59.809Z,27.77
2018-05-26T18:53:01.970Z,27.64
2018-05-26T18:56:04.011Z,27.58
2018-05-26T18:59:07.119Z,27.50
2018-05-26T19:02:09.327Z,27.42
2018-05-26T19:05:11.441Z,27.38
2018-05-26T19:08:15.544Z,27.33
2018-05-26T19:11:18.014Z,27.25
2018-05-26T19:14:20.118Z,27.16
2018-05-26T19:17:22.167Z,27.09
2018-05-26T19:20:24.256Z,27.03
2018-05-26T19:23:26.303Z,26.96
2018-05-26T19:26:28.374Z,26.83
2018-05-26T19:29:30.371Z,26.71
2018-05-26T19:32:32.591Z,26.67
2018-05-26T19:35:34.783Z,26.63
2018-05-26T19:38:37.892Z,26.57
2018-05-26T19:41:40.988Z,26.49
2018-05-26T19:44:43.059Z,26.45
2018-05-26T19:47:47.487Z,26.39
2018-05-26T19:50:49.551Z,26.34
2018-05-26T19:53:51.559Z,26.25
2018-05-26T19:56:53.579Z,26.10
2018-05-26T19:59:55.615Z,26.01
2018-05-26T20:02:57.700Z,25.99
2018-05-26T20:05:59.693Z,25.96
2018-05-26T20:09:02.950Z,25.93
2018-05-26T20:12:05.119Z,25.89
2018-05-26T20:15:07.699Z,25.75
2018-05-26T20:18:09.659Z,25.73
2018-05-26T20:21:11.789Z,25.65
2018-05-26T20:24:13.747Z,25.58
2018-05-26T20:27:15.870Z,25.52
2018-05-26T20:30:17.955Z,25.46
2018-05-26T20:33:20.103Z,25.37
2018-05-26T20:36:22.112Z,25.31
2018-05-26T20:39:24.345Z,25.26
2018-05-26T20:42:26.516Z,25.21
2018-05-26T20:45:28.601Z,25.16
2018-05-26T20:48:30.889Z,25.12
2018-05-26T20:51:34.133Z,25.07
2018-05-26T20:54:36.307Z,25.00
2018-05-26T20:57:38.839Z,24.96
2018-05-26T21:00:40.913Z,24.93
2018-05-26T21:03:43.148Z,24.80
2018-05-26T21:06:45.261Z,24.76
2018-05-26T21:09:47.680Z,24.74
2018-05-26T21:12:49.797Z,24.68
2018-05-26T21:15:51.901Z,24.63
2018-05-26T21:18:54.120Z,24.54
2018-05-26T21:21:56.706Z,24.47
2018-05-26T21:24:58.791Z,24.44
2018-05-26T21:28:00.855Z,24.39
2018-05-26T21:31:03.338Z,24.37
2018-05-26T21:34:07.266Z,24.31
2018-05-26T21:37:09.315Z,24.28
2018-05-26T21:40:11.394Z,24.23
2018-05-26T21:43:13.497Z,24.20
2018-05-26T21:46:15.508Z,24.21
2018-05-26T21:49:17.584Z,24.24
2018-05-26T21:52:19.678Z,24.23
2018-05-26T21:55:21.723Z,24.20
2018-05-26T21:58:23.792Z,24.17
2018-05-26T22:01:25.848Z,24.13
2018-05-26T22:04:27.840Z,24.10
2018-05-26T22:07:30.033Z,24.01
2018-05-26T22:10:32.059Z,23.91
2018-05-26T22:13:35.414Z,23.81
2018-05-26T22:16:37.361Z,23.75
2018-05-26T22:19:39.540Z,23.72
2018-05-26T22:22:41.555Z,23.65
2018-05-26T22:25:43.628Z,23.63
2018-05-26T22:28:45.687Z,23.53
2018-05-26T22:31:47.663Z,23.49
2018-05-26T22:34:49.759Z,23.39
2018-05-26T22:37:53.593Z,23.32
2018-05-26T22:40:55.608Z,23.30
2018-05-26T22:43:57.685Z,23.17
2018-05-26T22:46:59.791Z,23.12
2018-05-26T22:50:01.828Z,23.05
2018-05-26T22:53:05.803Z,23.02
2018-05-26T22:56:07.825Z,22.96
2018-05-26T22:59:09.879Z,22.89
2018-05-26T23:02:11.945Z,22.80
2018-05-26T23:05:14.048Z,22.78
2018-05-26T23:08:16.903Z,22.74
2018-05-26T23:11:18.999Z,22.75
2018-05-26T23:14:22.343Z,22.70
2018-05-26T23:17:24.295Z,22.67
2018-05-26T23:20:26.416Z,22.63
2018-05-26T23:23:28.492Z,22.63
2018-05-26T23:26:30.559Z,22.66
2018-05-26T23:29:33.651Z,22.65
2018-05-26T23:32:35.687Z,22.63
2018-05-26T23:35:37.745Z,22.63
2018-05-26T23:38:39.860Z,22.66
2018-05-26T23:41:41.884Z,22.68
2018-05-26T23:44:43.852Z,22.67
2018-05-26T23:47:45.968Z,22.69
2018-05-26T23:50:48.023Z,22.69
2018-05-26T23:53:50.106Z,22.71
2018-05-26T23:56:52.299Z,22.70
2018-05-26T23:59:54.289Z,22.67
